Aviation Digital Data Service (ADDS)

Output produced by METARs form (1444 UTC 19 April 2019)
found at http://www.aviationweather.gov/metar/data/
 
METAR text: FZAA 190900Z 27006KT 8000 SCT020 30/23 Q1013 NOSIG
Conditions at: FZAA (KINSHASA/N'DJILI, CD) observed 0900 UTC 19 April 2019
Temperature: 30.0°C (86°F)
Dewpoint: 23.0°C (73°F) [RH = 66%]
Pressure (altimeter): 29.91 inches Hg (1013.0 mb)
Winds: from the W (270 degrees) at 7 MPH (6 knots; 3.1 m/s)
Visibility: 5 miles ( 8 km)
Ceiling: at least 12,000 feet AGL
Clouds: scattered clouds at 2000 feet AGL
Weather: no significant weather observed at this time

METAR text: FZAA 190800Z 32008KT 6000 BKN018 28/23 Q1013 NOSIG
Conditions at: FZAA (KINSHASA/N'DJILI, CD) observed 0800 UTC 19 April 2019
Temperature: 28.0°C (82°F)
Dewpoint: 23.0°C (73°F) [RH = 74%]
Pressure (altimeter): 29.91 inches Hg (1013.0 mb)
Winds: from the NW (320 degrees) at 9 MPH (8 knots; 4.1 m/s)
Visibility: 4 miles ( 6 km)
Ceiling: 1800 feet AGL
Clouds: broken clouds at 1800 feet AGL
Weather: no significant weather observed at this time

METAR text: FZAA 181600Z 17004KT 6000 SCT018 FEW028CB BKN100 29/23 Q1006 RETS NOSIG
Conditions at: FZAA (KINSHASA/N'DJILI, CD) observed 1600 UTC 18 April 2019
Temperature: 29.0°C (84°F)
Dewpoint: 23.0°C (73°F) [RH = 70%]
Pressure (altimeter): 29.70 inches Hg (1006.0 mb)
Winds: from the S (170 degrees) at 5 MPH (4 knots; 2.1 m/s)
Visibility: 4 miles ( 6 km)
Ceiling: 10000 feet AGL
Clouds: scattered clouds at 1800 feet AGL
few clouds at 2800 feet AGL
broken clouds at 10000 feet AGL
Weather: no significant weather observed at this time

METAR text: FZAA 181200Z 32012KT 8000 SCT024 FEW032CB 34/23 Q1010 NOSIG
Conditions at: FZAA (KINSHASA/N'DJILI, CD) observed 1200 UTC 18 April 2019
Temperature: 34.0°C (93°F)
Dewpoint: 23.0°C (73°F) [RH = 53%]
Pressure (altimeter): 29.82 inches Hg (1010.0 mb)
Winds: from the NW (320 degrees) at 14 MPH (12 knots; 6.2 m/s)
Visibility: 5 miles ( 8 km)
Ceiling: at least 12,000 feet AGL
Clouds: scattered clouds at 2400 feet AGL
few clouds at 3200 feet AGL
Weather: no significant weather observed at this time

METAR text: FZAA 180900Z 36010KT 8000 SCT021 31/23 1012 NOSIG
Conditions at: FZAA (KINSHASA/N'DJILI, CD) observed 0900 UTC 18 April 2019
Temperature: 31.0°C (88°F)
Dewpoint: 23.0°C (73°F) [RH = 63%]
Pressure (altimeter): missing
Winds: from the N (360 degrees) at 12 MPH (10 knots; 5.1 m/s)
Visibility: 5 miles ( 8 km)
Ceiling: at least 12,000 feet AGL
Clouds: scattered clouds at 2100 feet AGL
Weather: no significant weather observed at this time

METAR text: FZAA 180800Z 21004KT 7000 FEW018 BKN110 28/22 Q1012 NOSIG
Conditions at: FZAA (KINSHASA/N'DJILI, CD) observed 0800 UTC 18 April 2019
Temperature: 28.0°C (82°F)
Dewpoint: 22.0°C (72°F) [RH = 70%]
Pressure (altimeter): 29.88 inches Hg (1012.0 mb)
Winds: from the SSW (210 degrees) at 5 MPH (4 knots; 2.1 m/s)
Visibility: 4 miles ( 7 km)
Ceiling: 11000 feet AGL
Clouds: few clouds at 1800 feet AGL
broken clouds at 11000 feet AGL
Weather: no significant weather observed at this time

Forecast for: FZAA (KINSHASA/N'DJILI, CD)
Text: TAF FZAA 191100Z 1912/2018 33010KT 8000 SCT024 FEW030CB
Forecast period: 1200 to 2000 UTC 19 April 2019
Forecast type: FROM: standard forecast or significant change
Winds: from the NNW (330 degrees) at 12 MPH (10 knots; 5.1 m/s)
Visibility: 5 miles (8 km)
Ceiling: at least 12,000 feet AGL
Clouds: scattered clouds at 2400 feet AGL
few clouds at 3000 feet AGL
Weather: no significant weather forecast for this period
Text: PROB30
Forecast period: 1400 to 1800 UTC 19 April 2019
Forecast type: TEMPORARY: The following changes expected for less than half the time period
Visibility: missing
Ceiling: unknown
Clouds: missing
Weather: TS  (thunderstorm)
Text: TEMPO 1914/1918 TS
Forecast period: 2000 UTC 19 April 2019 to 0300 UTC 20 April 2019
Forecast type: BECOMING: Conditions expected to become as follows by 2200 UTC 19 April 2019
Winds: from the S (180 degrees) at 5 MPH (4 knots; 2.1 m/s)
Visibility: 5 miles (8 km)
Ceiling: at least 12,000 feet AGL
Clouds: few clouds at 1800 feet AGL
Weather: no significant weather forecast for this period
Text: BECMG 1920/1922 18004KT FEW018
Forecast period: 0300 to 1800 UTC 20 April 2019
Forecast type: BECOMING: Conditions expected to become as follows by 0500 UTC 20 April 2019
Winds: from the WSW (240 degrees) at 7 MPH (6 knots; 3.1 m/s)
Visibility: 5 miles (8 km)
Ceiling: 1600 feet AGL
Clouds: broken clouds at 1600 feet AGL
Weather: no significant weather forecast for this period